sensor_id;sensor_type;location;lat;lon;timestamp;temperature;humidity
13328;DHT22;6733;51.044;3.746;2024-03-02T00:00:51;8.10;81.60
13328;DHT22;6733;51.044;3.746;2024-03-02T00:03:18;8.20;81.60
13328;DHT22;6733;51.044;3.746;2024-03-02T00:05:49;8.20;81.70
13328;DHT22;6733;51.044;3.746;2024-03-02T00:08:23;8.10;81.60
13328;DHT22;6733;51.044;3.746;2024-03-02T00:10:50;8.10;81.60
13328;DHT22;6733;51.044;3.746;2024-03-02T00:13:20;8.10;81.90
13328;DHT22;6733;51.044;3.746;2024-03-02T00:15:53;8.10;81.80
13328;DHT22;6733;51.044;3.746;2024-03-02T00:18:40;8.10;81.80
13328;DHT22;6733;51.044;3.746;2024-03-02T00:21:07;8.10;81.70
13328;DHT22;6733;51.044;3.746;2024-03-02T00:23:37;8.20;81.70
13328;DHT22;6733;51.044;3.746;2024-03-02T00:26:05;8.10;81.80
13328;DHT22;6733;51.044;3.746;2024-03-02T00:28:35;8.10;81.60
13328;DHT22;6733;51.044;3.746;2024-03-02T00:31:09;8.10;81.60
13328;DHT22;6733;51.044;3.746;2024-03-02T00:33:44;8.10;81.50
13328;DHT22;6733;51.044;3.746;2024-03-02T00:36:16;8.00;81.80
13328;DHT22;6733;51.044;3.746;2024-03-02T00:38:48;8.00;81.90
13328;DHT22;6733;51.044;3.746;2024-03-02T00:41:26;8.00;82.00
13328;DHT22;6733;51.044;3.746;2024-03-02T00:44:04;8.00;82.00
13328;DHT22;6733;51.044;3.746;2024-03-02T00:46:40;8.00;82.10
13328;DHT22;6733;51.044;3.746;2024-03-02T00:49:24;8.00;82.00
13328;DHT22;6733;51.044;3.746;2024-03-02T00:51:52;8.10;81.80
13328;DHT22;6733;51.044;3.746;2024-03-02T00:54:25;8.10;81.70
13328;DHT22;6733;51.044;3.746;2024-03-02T00:56:52;8.10;81.30
13328;DHT22;6733;51.044;3.746;2024-03-02T00:59:21;8.10;81.20
13328;DHT22;6733;51.044;3.746;2024-03-02T01:01:48;8.10;81.20
13328;DHT22;6733;51.044;3.746;2024-03-02T01:04:16;8.20;81.00
13328;DHT22;6733;51.044;3.746;2024-03-02T01:06:42;8.00;80.80
13328;DHT22;6733;51.044;3.746;2024-03-02T01:09:09;7.90;81.00
13328;DHT22;6733;51.044;3.746;2024-03-02T01:11:35;7.90;81.20
13328;DHT22;6733;51.044;3.746;2024-03-02T01:14:01;7.90;81.30
13328;DHT22;6733;51.044;3.746;2024-03-02T01:16:27;7.80;81.40
13328;DHT22;6733;51.044;3.746;2024-03-02T01:18:54;7.60;81.60
13328;DHT22;6733;51.044;3.746;2024-03-02T01:21:20;7.60;81.60
13328;DHT22;6733;51.044;3.746;2024-03-02T01:23:46;7.60;81.70
13328;DHT22;6733;51.044;3.746;2024-03-02T01:26:12;7.50;81.80
13328;DHT22;6733;51.044;3.746;2024-03-02T01:28:38;7.60;81.70
13328;DHT22;6733;51.044;3.746;2024-03-02T01:31:05;7.70;81.30
13328;DHT22;6733;51.044;3.746;2024-03-02T01:33:31;7.60;81.20
13328;DHT22;6733;51.044;3.746;2024-03-02T01:35:57;7.60;81.20
13328;DHT22;6733;51.044;3.746;2024-03-02T01:38:23;7.60;81.10
13328;DHT22;6733;51.044;3.746;2024-03-02T01:40:49;7.70;80.80
13328;DHT22;6733;51.044;3.746;2024-03-02T01:43:16;7.60;80.80
13328;DHT22;6733;51.044;3.746;2024-03-02T01:45:42;7.60;80.70
13328;DHT22;6733;51.044;3.746;2024-03-02T01:48:08;7.60;80.80
13328;DHT22;6733;51.044;3.746;2024-03-02T01:50:35;7.50;80.90
13328;DHT22;6733;51.044;3.746;2024-03-02T01:53:02;7.50;80.90
13328;DHT22;6733;51.044;3.746;2024-03-02T01:55:28;7.50;80.80
13328;DHT22;6733;51.044;3.746;2024-03-02T01:57:56;7.50;80.80
13328;DHT22;6733;51.044;3.746;2024-03-02T02:00:23;7.40;80.80
13328;DHT22;6733;51.044;3.746;2024-03-02T02:02:52;7.40;80.70
13328;DHT22;6733;51.044;3.746;2024-03-02T02:05:18;7.40;80.80
13328;DHT22;6733;51.044;3.746;2024-03-02T02:07:45;7.40;80.50
13328;DHT22;6733;51.044;3.746;2024-03-02T02:10:11;7.40;80.60
13328;DHT22;6733;51.044;3.746;2024-03-02T02:12:37;7.40;80.60
13328;DHT22;6733;51.044;3.746;2024-03-02T02:15:21;7.30;80.80
13328;DHT22;6733;51.044;3.746;2024-03-02T02:17:47;7.40;80.80
13328;DHT22;6733;51.044;3.746;2024-03-02T02:20:13;7.30;80.70
13328;DHT22;6733;51.044;3.746;2024-03-02T02:22:39;7.30;80.80
13328;DHT22;6733;51.044;3.746;2024-03-02T02:25:06;7.20;81.10
13328;DHT22;6733;51.044;3.746;2024-03-02T02:27:32;7.20;81.00
13328;DHT22;6733;51.044;3.746;2024-03-02T02:29:58;7.20;81.10
13328;DHT22;6733;51.044;3.746;2024-03-02T02:32:25;7.20;81.10
13328;DHT22;6733;51.044;3.746;2024-03-02T02:35:16;7.20;81.10
13328;DHT22;6733;51.044;3.746;2024-03-02T02:38:07;7.20;81.20
13328;DHT22;6733;51.044;3.746;2024-03-02T02:40:58;7.20;81.30
13328;DHT22;6733;51.044;3.746;2024-03-02T02:43:49;7.20;81.20
13328;DHT22;6733;51.044;3.746;2024-03-02T02:46:41;7.20;81.30
13328;DHT22;6733;51.044;3.746;2024-03-02T02:49:32;7.20;81.50
13328;DHT22;6733;51.044;3.746;2024-03-02T02:52:23;7.20;81.20
13328;DHT22;6733;51.044;3.746;2024-03-02T02:55:14;7.30;81.20
13328;DHT22;6733;51.044;3.746;2024-03-02T02:58:06;7.30;81.20
13328;DHT22;6733;51.044;3.746;2024-03-02T03:00:32;7.30;81.10
13328;DHT22;6733;51.044;3.746;2024-03-02T03:02:59;7.30;81.20
13328;DHT22;6733;51.044;3.746;2024-03-02T03:05:25;7.30;81.00
13328;DHT22;6733;51.044;3.746;2024-03-02T03:07:51;7.30;80.90
13328;DHT22;6733;51.044;3.746;2024-03-02T03:10:17;7.20;81.10
13328;DHT22;6733;51.044;3.746;2024-03-02T03:12:44;7.30;80.90
13328;DHT22;6733;51.044;3.746;2024-03-02T03:15:10;7.20;81.00
13328;DHT22;6733;51.044;3.746;2024-03-02T03:17:37;7.20;81.10
13328;DHT22;6733;51.044;3.746;2024-03-02T03:20:03;7.20;81.20
13328;DHT22;6733;51.044;3.746;2024-03-02T03:22:31;7.20;81.20
13328;DHT22;6733;51.044;3.746;2024-03-02T03:24:58;7.10;81.30
13328;DHT22;6733;51.044;3.746;2024-03-02T03:27:24;7.10;81.40
13328;DHT22;6733;51.044;3.746;2024-03-02T03:29:50;7.10;81.40
13328;DHT22;6733;51.044;3.746;2024-03-02T03:32:16;7.10;81.50
13328;DHT22;6733;51.044;3.746;2024-03-02T03:34:42;7.00;81.70
13328;DHT22;6733;51.044;3.746;2024-03-02T03:37:08;7.00;81.80
13328;DHT22;6733;51.044;3.746;2024-03-02T03:39:35;7.00;81.90
13328;DHT22;6733;51.044;3.746;2024-03-02T03:42:02;7.00;81.90
13328;DHT22;6733;51.044;3.746;2024-03-02T03:44:28;7.00;82.00
13328;DHT22;6733;51.044;3.746;2024-03-02T03:46:54;7.00;82.10
13328;DHT22;6733;51.044;3.746;2024-03-02T03:49:20;7.00;82.10
13328;DHT22;6733;51.044;3.746;2024-03-02T03:51:46;7.00;82.10
13328;DHT22;6733;51.044;3.746;2024-03-02T03:54:13;6.90;82.60
13328;DHT22;6733;51.044;3.746;2024-03-02T03:56:39;6.80;82.70
13328;DHT22;6733;51.044;3.746;2024-03-02T03:59:05;6.90;82.80
13328;DHT22;6733;51.044;3.746;2024-03-02T04:01:31;6.90;82.80
13328;DHT22;6733;51.044;3.746;2024-03-02T04:03:57;6.80;83.20
13328;DHT22;6733;51.044;3.746;2024-03-02T04:06:24;6.80;83.00
13328;DHT22;6733;51.044;3.746;2024-03-02T04:08:51;6.90;83.00
13328;DHT22;6733;51.044;3.746;2024-03-02T04:11:17;6.80;83.00
13328;DHT22;6733;51.044;3.746;2024-03-02T04:13:43;6.80;82.80
13328;DHT22;6733;51.044;3.746;2024-03-02T04:16:09;6.80;82.90
13328;DHT22;6733;51.044;3.746;2024-03-02T04:18:35;6.80;82.80
13328;DHT22;6733;51.044;3.746;2024-03-02T04:21:02;6.80;82.60
13328;DHT22;6733;51.044;3.746;2024-03-02T04:23:28;6.80;82.70
13328;DHT22;6733;51.044;3.746;2024-03-02T04:25:54;6.80;82.50
13328;DHT22;6733;51.044;3.746;2024-03-02T04:28:20;6.80;82.40
13328;DHT22;6733;51.044;3.746;2024-03-02T04:30:46;6.90;82.30
13328;DHT22;6733;51.044;3.746;2024-03-02T04:33:12;6.90;82.30
13328;DHT22;6733;51.044;3.746;2024-03-02T04:35:39;7.00;82.30
13328;DHT22;6733;51.044;3.746;2024-03-02T04:38:05;7.10;82.20
13328;DHT22;6733;51.044;3.746;2024-03-02T04:40:31;7.10;82.10
13328;DHT22;6733;51.044;3.746;2024-03-02T04:42:58;7.10;81.60
13328;DHT22;6733;51.044;3.746;2024-03-02T04:45:25;7.10;81.80
13328;DHT22;6733;51.044;3.746;2024-03-02T04:47:51;7.20;81.50
13328;DHT22;6733;51.044;3.746;2024-03-02T04:50:17;7.10;81.40
13328;DHT22;6733;51.044;3.746;2024-03-02T04:52:43;7.20;81.50
13328;DHT22;6733;51.044;3.746;2024-03-02T04:55:09;7.10;81.50
13328;DHT22;6733;51.044;3.746;2024-03-02T04:57:43;7.10;81.50
13328;DHT22;6733;51.044;3.746;2024-03-02T05:00:10;7.10;81.30
13328;DHT22;6733;51.044;3.746;2024-03-02T05:02:36;7.10;81.20
13328;DHT22;6733;51.044;3.746;2024-03-02T05:05:02;7.00;81.30
13328;DHT22;6733;51.044;3.746;2024-03-02T05:07:29;7.00;81.50
13328;DHT22;6733;51.044;3.746;2024-03-02T05:09:55;7.00;81.60
13328;DHT22;6733;51.044;3.746;2024-03-02T05:12:21;6.90;81.80
13328;DHT22;6733;51.044;3.746;2024-03-02T05:15:06;7.00;81.70
13328;DHT22;6733;51.044;3.746;2024-03-02T05:17:33;6.90;81.90
13328;DHT22;6733;51.044;3.746;2024-03-02T05:19:59;6.90;81.70
13328;DHT22;6733;51.044;3.746;2024-03-02T05:22:26;6.90;81.60
13328;DHT22;6733;51.044;3.746;2024-03-02T05:24:52;6.90;81.60
13328;DHT22;6733;51.044;3.746;2024-03-02T05:27:18;6.80;81.70
13328;DHT22;6733;51.044;3.746;2024-03-02T05:29:44;6.80;81.60
13328;DHT22;6733;51.044;3.746;2024-03-02T05:32:10;6.90;81.60
13328;DHT22;6733;51.044;3.746;2024-03-02T05:34:36;6.80;81.60
13328;DHT22;6733;51.044;3.746;2024-03-02T05:37:02;6.80;81.70
13328;DHT22;6733;51.044;3.746;2024-03-02T05:39:28;6.80;81.90
13328;DHT22;6733;51.044;3.746;2024-03-02T05:41:55;6.80;81.90
13328;DHT22;6733;51.044;3.746;2024-03-02T05:44:21;6.80;81.90
13328;DHT22;6733;51.044;3.746;2024-03-02T05:46:48;6.70;81.70
13328;DHT22;6733;51.044;3.746;2024-03-02T05:49:14;6.80;81.60
13328;DHT22;6733;51.044;3.746;2024-03-02T05:51:40;6.70;81.50
13328;DHT22;6733;51.044;3.746;2024-03-02T05:54:07;6.70;81.60
13328;DHT22;6733;51.044;3.746;2024-03-02T05:56:33;6.60;81.70
13328;DHT22;6733;51.044;3.746;2024-03-02T05:58:59;6.70;81.60
13328;DHT22;6733;51.044;3.746;2024-03-02T06:01:34;6.70;81.50
13328;DHT22;6733;51.044;3.746;2024-03-02T06:04:01;6.70;81.40
13328;DHT22;6733;51.044;3.746;2024-03-02T06:06:27;6.70;81.60
13328;DHT22;6733;51.044;3.746;2024-03-02T06:08:53;6.70;81.70
13328;DHT22;6733;51.044;3.746;2024-03-02T06:11:19;6.60;81.90
13328;DHT22;6733;51.044;3.746;2024-03-02T06:13:47;6.60;81.70
13328;DHT22;6733;51.044;3.746;2024-03-02T06:16:13;6.60;81.80
13328;DHT22;6733;51.044;3.746;2024-03-02T06:18:39;6.60;81.80
13328;DHT22;6733;51.044;3.746;2024-03-02T06:21:05;6.60;81.70
13328;DHT22;6733;51.044;3.746;2024-03-02T06:23:31;6.60;81.70
13328;DHT22;6733;51.044;3.746;2024-03-02T06:25:58;6.60;82.20
13328;DHT22;6733;51.044;3.746;2024-03-02T06:28:24;6.50;82.40
13328;DHT22;6733;51.044;3.746;2024-03-02T06:30:50;6.50;82.50
13328;DHT22;6733;51.044;3.746;2024-03-02T06:33:16;6.50;82.50
13328;DHT22;6733;51.044;3.746;2024-03-02T06:35:43;6.50;82.70
13328;DHT22;6733;51.044;3.746;2024-03-02T06:38:09;6.50;83.00
13328;DHT22;6733;51.044;3.746;2024-03-02T06:40:35;6.40;83.00
13328;DHT22;6733;51.044;3.746;2024-03-02T06:43:03;6.50;83.10
13328;DHT22;6733;51.044;3.746;2024-03-02T06:45:29;6.50;83.10
13328;DHT22;6733;51.044;3.746;2024-03-02T06:47:56;6.40;83.30
13328;DHT22;6733;51.044;3.746;2024-03-02T06:50:22;6.40;83.40
13328;DHT22;6733;51.044;3.746;2024-03-02T06:52:48;6.40;83.60
13328;DHT22;6733;51.044;3.746;2024-03-02T06:55:14;6.40;83.60
13328;DHT22;6733;51.044;3.746;2024-03-02T06:57:41;6.40;83.60
13328;DHT22;6733;51.044;3.746;2024-03-02T07:00:07;6.40;83.60
13328;DHT22;6733;51.044;3.746;2024-03-02T07:02:35;6.40;83.60
13328;DHT22;6733;51.044;3.746;2024-03-02T07:05:03;6.40;83.70
13328;DHT22;6733;51.044;3.746;2024-03-02T07:07:30;6.40;83.80
13328;DHT22;6733;51.044;3.746;2024-03-02T07:09:56;6.40;83.70
13328;DHT22;6733;51.044;3.746;2024-03-02T07:12:22;6.50;83.50
13328;DHT22;6733;51.044;3.746;2024-03-02T07:14:48;6.50;83.40
13328;DHT22;6733;51.044;3.746;2024-03-02T07:17:30;6.50;83.20
13328;DHT22;6733;51.044;3.746;2024-03-02T07:19:57;6.60;83.10
13328;DHT22;6733;51.044;3.746;2024-03-02T07:22:23;6.60;83.00
13328;DHT22;6733;51.044;3.746;2024-03-02T07:24:50;6.70;82.90
13328;DHT22;6733;51.044;3.746;2024-03-02T07:27:17;6.70;82.60
13328;DHT22;6733;51.044;3.746;2024-03-02T07:29:43;6.80;82.40
13328;DHT22;6733;51.044;3.746;2024-03-02T07:32:10;6.90;82.20
13328;DHT22;6733;51.044;3.746;2024-03-02T07:34:36;6.90;82.30
13328;DHT22;6733;51.044;3.746;2024-03-02T07:37:03;6.90;82.20
13328;DHT22;6733;51.044;3.746;2024-03-02T07:39:30;7.00;82.00
13328;DHT22;6733;51.044;3.746;2024-03-02T07:41:56;7.00;81.80
13328;DHT22;6733;51.044;3.746;2024-03-02T07:44:22;7.00;81.70
13328;DHT22;6733;51.044;3.746;2024-03-02T07:46:49;7.10;81.50
13328;DHT22;6733;51.044;3.746;2024-03-02T07:49:18;7.10;81.40
13328;DHT22;6733;51.044;3.746;2024-03-02T07:51:45;7.20;81.20
13328;DHT22;6733;51.044;3.746;2024-03-02T07:54:11;7.20;81.20
13328;DHT22;6733;51.044;3.746;2024-03-02T07:56:37;7.30;81.10
13328;DHT22;6733;51.044;3.746;2024-03-02T07:59:04;7.30;80.90
13328;DHT22;6733;51.044;3.746;2024-03-02T08:01:33;7.40;80.80
13328;DHT22;6733;51.044;3.746;2024-03-02T08:04:01;7.50;80.90
13328;DHT22;6733;51.044;3.746;2024-03-02T08:06:29;7.60;80.70
13328;DHT22;6733;51.044;3.746;2024-03-02T08:08:58;7.60;80.60
13328;DHT22;6733;51.044;3.746;2024-03-02T08:11:25;7.60;80.10
13328;DHT22;6733;51.044;3.746;2024-03-02T08:13:50;7.70;79.90
13328;DHT22;6733;51.044;3.746;2024-03-02T08:16:18;7.70;79.80
13328;DHT22;6733;51.044;3.746;2024-03-02T08:18:48;7.70;79.40
13328;DHT22;6733;51.044;3.746;2024-03-02T08:21:14;7.70;79.20
13328;DHT22;6733;51.044;3.746;2024-03-02T08:23:40;7.70;79.50
13328;DHT22;6733;51.044;3.746;2024-03-02T08:26:11;7.80;79.60
13328;DHT22;6733;51.044;3.746;2024-03-02T08:28:37;7.80;79.30
13328;DHT22;6733;51.044;3.746;2024-03-02T08:31:06;7.90;79.30
13328;DHT22;6733;51.044;3.746;2024-03-02T08:33:33;7.90;79.40
13328;DHT22;6733;51.044;3.746;2024-03-02T08:36:00;8.00;78.90
13328;DHT22;6733;51.044;3.746;2024-03-02T08:38:26;8.10;78.70
13328;DHT22;6733;51.044;3.746;2024-03-02T08:40:52;8.10;78.50
13328;DHT22;6733;51.044;3.746;2024-03-02T08:43:20;8.20;77.90
13328;DHT22;6733;51.044;3.746;2024-03-02T08:45:46;8.30;77.60
13328;DHT22;6733;51.044;3.746;2024-03-02T08:48:13;8.40;77.60
13328;DHT22;6733;51.044;3.746;2024-03-02T08:50:39;8.50;76.60
13328;DHT22;6733;51.044;3.746;2024-03-02T08:53:05;8.60;76.10
13328;DHT22;6733;51.044;3.746;2024-03-02T08:55:31;8.70;76.10
13328;DHT22;6733;51.044;3.746;2024-03-02T08:57:57;8.80;75.70
13328;DHT22;6733;51.044;3.746;2024-03-02T09:00:24;8.90;75.30
13328;DHT22;6733;51.044;3.746;2024-03-02T09:02:51;9.00;75.40
13328;DHT22;6733;51.044;3.746;2024-03-02T09:05:17;9.10;74.50
13328;DHT22;6733;51.044;3.746;2024-03-02T09:07:43;9.30;73.60
13328;DHT22;6733;51.044;3.746;2024-03-02T09:10:09;9.40;73.10
13328;DHT22;6733;51.044;3.746;2024-03-02T09:12:36;9.50;72.70
13328;DHT22;6733;51.044;3.746;2024-03-02T09:15:03;9.70;72.70
13328;DHT22;6733;51.044;3.746;2024-03-02T09:17:30;10.00;72.20
13328;DHT22;6733;51.044;3.746;2024-03-02T09:19:56;10.20;70.70
13328;DHT22;6733;51.044;3.746;2024-03-02T09:22:22;10.20;69.70
13328;DHT22;6733;51.044;3.746;2024-03-02T09:24:49;10.30;70.30
13328;DHT22;6733;51.044;3.746;2024-03-02T09:27:15;10.40;70.20
13328;DHT22;6733;51.044;3.746;2024-03-02T09:29:41;10.50;69.30
13328;DHT22;6733;51.044;3.746;2024-03-02T09:32:11;10.60;69.10
13328;DHT22;6733;51.044;3.746;2024-03-02T09:34:38;10.60;69.00
13328;DHT22;6733;51.044;3.746;2024-03-02T09:37:04;10.90;68.50
13328;DHT22;6733;51.044;3.746;2024-03-02T09:39:30;11.10;68.30
13328;DHT22;6733;51.044;3.746;2024-03-02T09:41:58;11.20;67.20
13328;DHT22;6733;51.044;3.746;2024-03-02T09:44:25;11.40;67.00
13328;DHT22;6733;51.044;3.746;2024-03-02T09:46:52;11.40;66.30
13328;DHT22;6733;51.044;3.746;2024-03-02T09:49:18;11.40;66.30
13328;DHT22;6733;51.044;3.746;2024-03-02T09:51:47;11.50;66.30
13328;DHT22;6733;51.044;3.746;2024-03-02T09:54:16;11.50;66.00
13328;DHT22;6733;51.044;3.746;2024-03-02T09:56:42;11.50;66.30
13328;DHT22;6733;51.044;3.746;2024-03-02T09:59:08;11.70;65.70
13328;DHT22;6733;51.044;3.746;2024-03-02T10:01:35;11.70;65.20
13328;DHT22;6733;51.044;3.746;2024-03-02T10:04:01;11.70;66.10
13328;DHT22;6733;51.044;3.746;2024-03-02T10:06:29;11.70;65.80
13328;DHT22;6733;51.044;3.746;2024-03-02T10:08:56;11.70;65.20
13328;DHT22;6733;51.044;3.746;2024-03-02T10:11:32;11.70;65.60
13328;DHT22;6733;51.044;3.746;2024-03-02T10:14:09;11.70;65.50
13328;DHT22;6733;51.044;3.746;2024-03-02T10:16:39;11.60;65.80
13328;DHT22;6733;51.044;3.746;2024-03-02T10:19:22;11.60;65.60
13328;DHT22;6733;51.044;3.746;2024-03-02T10:24:16;11.40;65.50
13328;DHT22;6733;51.044;3.746;2024-03-02T10:26:42;11.40;65.80
13328;DHT22;6733;51.044;3.746;2024-03-02T10:29:09;11.30;65.80
13328;DHT22;6733;51.044;3.746;2024-03-02T10:31:44;11.20;66.50
13328;DHT22;6733;51.044;3.746;2024-03-02T10:34:11;11.40;66.40
13328;DHT22;6733;51.044;3.746;2024-03-02T10:36:41;11.60;66.00
13328;DHT22;6733;51.044;3.746;2024-03-02T10:39:08;11.70;65.50
13328;DHT22;6733;51.044;3.746;2024-03-02T10:41:38;11.80;65.60
13328;DHT22;6733;51.044;3.746;2024-03-02T10:44:08;11.90;65.30
13328;DHT22;6733;51.044;3.746;2024-03-02T10:46:37;12.00;65.10
13328;DHT22;6733;51.044;3.746;2024-03-02T10:49:05;12.10;64.40
13328;DHT22;6733;51.044;3.746;2024-03-02T10:51:33;12.10;64.30
13328;DHT22;6733;51.044;3.746;2024-03-02T10:54:00;12.20;64.30
13328;DHT22;6733;51.044;3.746;2024-03-02T10:56:34;12.30;63.90
13328;DHT22;6733;51.044;3.746;2024-03-02T10:59:24;12.30;63.50
13328;DHT22;6733;51.044;3.746;2024-03-02T11:01:56;12.40;63.60
13328;DHT22;6733;51.044;3.746;2024-03-02T11:04:27;12.60;63.70
13328;DHT22;6733;51.044;3.746;2024-03-02T11:07:05;12.80;63.10
13328;DHT22;6733;51.044;3.746;2024-03-02T11:09:50;13.10;61.70
13328;DHT22;6733;51.044;3.746;2024-03-02T11:12:38;13.40;61.30
13328;DHT22;6733;51.044;3.746;2024-03-02T11:15:09;13.60;60.40
13328;DHT22;6733;51.044;3.746;2024-03-02T11:17:36;13.70;59.90
13328;DHT22;6733;51.044;3.746;2024-03-02T11:20:04;13.80;59.30
13328;DHT22;6733;51.044;3.746;2024-03-02T11:22:30;13.90;59.30
13328;DHT22;6733;51.044;3.746;2024-03-02T11:24:56;14.00;58.50
13328;DHT22;6733;51.044;3.746;2024-03-02T11:33:01;14.60;57.60
13328;DHT22;6733;51.044;3.746;2024-03-02T11:35:46;14.50;56.90
13328;DHT22;6733;51.044;3.746;2024-03-02T11:38:13;14.40;57.20
13328;DHT22;6733;51.044;3.746;2024-03-02T11:40:40;14.30;57.50
13328;DHT22;6733;51.044;3.746;2024-03-02T11:43:07;14.30;57.40
13328;DHT22;6733;51.044;3.746;2024-03-02T11:45:35;14.40;57.30
13328;DHT22;6733;51.044;3.746;2024-03-02T11:48:06;14.50;57.10
13328;DHT22;6733;51.044;3.746;2024-03-02T11:50:33;14.40;56.60
13328;DHT22;6733;51.044;3.746;2024-03-02T11:53:00;14.20;56.90
13328;DHT22;6733;51.044;3.746;2024-03-02T11:55:26;14.00;57.40
13328;DHT22;6733;51.044;3.746;2024-03-02T11:57:53;14.00;57.30
13328;DHT22;6733;51.044;3.746;2024-03-02T12:00:20;14.00;64.10
13328;DHT22;6733;51.044;3.746;2024-03-02T12:02:47;14.20;66.60
13328;DHT22;6733;51.044;3.746;2024-03-02T12:05:27;14.30;70.40
13328;DHT22;6733;51.044;3.746;2024-03-02T12:08:00;14.40;67.30
13328;DHT22;6733;51.044;3.746;2024-03-02T12:10:36;14.30;61.10
13328;DHT22;6733;51.044;3.746;2024-03-02T12:13:05;14.00;63.50
13328;DHT22;6733;51.044;3.746;2024-03-02T12:15:33;14.00;62.30
13328;DHT22;6733;51.044;3.746;2024-03-02T12:18:01;13.90;61.40
13328;DHT22;6733;51.044;3.746;2024-03-02T12:20:29;13.70;62.90
13328;DHT22;6733;51.044;3.746;2024-03-02T12:22:58;13.70;62.40
13328;DHT22;6733;51.044;3.746;2024-03-02T12:25:26;13.60;62.90
13328;DHT22;6733;51.044;3.746;2024-03-02T12:27:54;13.60;63.40
13328;DHT22;6733;51.044;3.746;2024-03-02T12:30:21;13.50;65.30
13328;DHT22;6733;51.044;3.746;2024-03-02T12:32:48;13.50;63.90
13328;DHT22;6733;51.044;3.746;2024-03-02T12:35:15;13.40;64.50
13328;DHT22;6733;51.044;3.746;2024-03-02T12:37:43;13.30;64.30
13328;DHT22;6733;51.044;3.746;2024-03-02T12:40:11;13.30;64.80
13328;DHT22;6733;51.044;3.746;2024-03-02T12:42:38;13.10;64.70
13328;DHT22;6733;51.044;3.746;2024-03-02T12:45:05;13.10;65.30
13328;DHT22;6733;51.044;3.746;2024-03-02T12:47:32;13.10;65.70
13328;DHT22;6733;51.044;3.746;2024-03-02T12:49:59;13.00;66.40
13328;DHT22;6733;51.044;3.746;2024-03-02T12:52:25;13.00;68.40
13328;DHT22;6733;51.044;3.746;2024-03-02T12:54:52;13.10;71.60
13328;DHT22;6733;51.044;3.746;2024-03-02T12:57:25;13.20;70.70
13328;DHT22;6733;51.044;3.746;2024-03-02T12:59:59;13.30;70.90
13328;DHT22;6733;51.044;3.746;2024-03-02T13:02:29;13.30;69.70
13328;DHT22;6733;51.044;3.746;2024-03-02T13:04:57;13.40;73.00
13328;DHT22;6733;51.044;3.746;2024-03-02T13:07:25;13.40;70.80
13328;DHT22;6733;51.044;3.746;2024-03-02T13:09:52;13.40;70.90
13328;DHT22;6733;51.044;3.746;2024-03-02T13:12:19;13.40;70.10
13328;DHT22;6733;51.044;3.746;2024-03-02T13:14:48;13.40;69.50
13328;DHT22;6733;51.044;3.746;2024-03-02T13:17:17;13.50;70.50
13328;DHT22;6733;51.044;3.746;2024-03-02T13:19:55;13.50;69.10
13328;DHT22;6733;51.044;3.746;2024-03-02T13:22:22;13.40;68.60
13328;DHT22;6733;51.044;3.746;2024-03-02T13:24:50;13.40;68.80
13328;DHT22;6733;51.044;3.746;2024-03-02T13:27:17;13.30;69.70
13328;DHT22;6733;51.044;3.746;2024-03-02T13:29:47;13.30;70.10
13328;DHT22;6733;51.044;3.746;2024-03-02T13:32:14;13.20;70.40
13328;DHT22;6733;51.044;3.746;2024-03-02T13:34:41;13.10;70.70
13328;DHT22;6733;51.044;3.746;2024-03-02T13:37:07;13.10;71.30
13328;DHT22;6733;51.044;3.746;2024-03-02T13:39:34;13.20;71.30
13328;DHT22;6733;51.044;3.746;2024-03-02T13:42:10;13.30;71.20
13328;DHT22;6733;51.044;3.746;2024-03-02T13:44:37;13.40;70.90
13328;DHT22;6733;51.044;3.746;2024-03-02T13:47:04;13.40;70.70
13328;DHT22;6733;51.044;3.746;2024-03-02T13:49:31;13.50;70.60
13328;DHT22;6733;51.044;3.746;2024-03-02T13:52:06;13.50;71.00
13328;DHT22;6733;51.044;3.746;2024-03-02T13:54:44;13.50;71.30
13328;DHT22;6733;51.044;3.746;2024-03-02T13:57:11;13.40;71.60
13328;DHT22;6733;51.044;3.746;2024-03-02T13:59:38;13.40;71.40
13328;DHT22;6733;51.044;3.746;2024-03-02T14:02:05;13.40;71.80
13328;DHT22;6733;51.044;3.746;2024-03-02T14:04:33;13.40;72.30
13328;DHT22;6733;51.044;3.746;2024-03-02T14:07:00;13.40;72.30
13328;DHT22;6733;51.044;3.746;2024-03-02T14:09:26;13.30;72.20
13328;DHT22;6733;51.044;3.746;2024-03-02T14:11:54;13.30;73.60
13328;DHT22;6733;51.044;3.746;2024-03-02T14:14:20;13.60;75.30
13328;DHT22;6733;51.044;3.746;2024-03-02T14:16:46;13.50;72.50
13328;DHT22;6733;51.044;3.746;2024-03-02T14:19:13;13.40;72.30
13328;DHT22;6733;51.044;3.746;2024-03-02T14:21:40;13.50;72.40
13328;DHT22;6733;51.044;3.746;2024-03-02T14:24:06;13.50;72.30
13328;DHT22;6733;51.044;3.746;2024-03-02T14:26:35;13.50;72.30
13328;DHT22;6733;51.044;3.746;2024-03-02T14:29:05;13.50;72.40
13328;DHT22;6733;51.044;3.746;2024-03-02T14:31:32;13.40;72.50
13328;DHT22;6733;51.044;3.746;2024-03-02T14:33:59;13.20;72.90
13328;DHT22;6733;51.044;3.746;2024-03-02T14:36:26;13.10;73.30
13328;DHT22;6733;51.044;3.746;2024-03-02T14:38:54;13.00;73.60
13328;DHT22;6733;51.044;3.746;2024-03-02T14:41:20;13.00;74.50
13328;DHT22;6733;51.044;3.746;2024-03-02T14:43:46;12.90;75.00
13328;DHT22;6733;51.044;3.746;2024-03-02T14:46:13;13.00;76.00
13328;DHT22;6733;51.044;3.746;2024-03-02T14:48:39;13.00;75.10
13328;DHT22;6733;51.044;3.746;2024-03-02T14:51:05;13.00;74.80
13328;DHT22;6733;51.044;3.746;2024-03-02T14:53:31;13.00;76.00
13328;DHT22;6733;51.044;3.746;2024-03-02T14:55:57;13.10;76.30
13328;DHT22;6733;51.044;3.746;2024-03-02T14:58:23;13.20;77.30
13328;DHT22;6733;51.044;3.746;2024-03-02T15:00:50;13.30;76.30
13328;DHT22;6733;51.044;3.746;2024-03-02T15:03:16;13.40;75.30
13328;DHT22;6733;51.044;3.746;2024-03-02T15:05:42;13.50;74.90
13328;DHT22;6733;51.044;3.746;2024-03-02T15:08:09;13.60;74.80
13328;DHT22;6733;51.044;3.746;2024-03-02T15:10:35;13.80;74.00
13328;DHT22;6733;51.044;3.746;2024-03-02T15:13:01;13.90;73.60
13328;DHT22;6733;51.044;3.746;2024-03-02T15:15:28;13.90;73.30
13328;DHT22;6733;51.044;3.746;2024-03-02T15:17:55;13.90;72.90
13328;DHT22;6733;51.044;3.746;2024-03-02T15:20:21;13.90;73.00
13328;DHT22;6733;51.044;3.746;2024-03-02T15:22:47;13.90;72.70
13328;DHT22;6733;51.044;3.746;2024-03-02T15:25:13;13.90;72.60
13328;DHT22;6733;51.044;3.746;2024-03-02T15:27:42;13.90;72.60
13328;DHT22;6733;51.044;3.746;2024-03-02T15:30:09;13.90;72.50
13328;DHT22;6733;51.044;3.746;2024-03-02T15:32:35;13.90;72.70
13328;DHT22;6733;51.044;3.746;2024-03-02T15:35:03;13.90;72.80
13328;DHT22;6733;51.044;3.746;2024-03-02T15:37:29;13.90;72.80
13328;DHT22;6733;51.044;3.746;2024-03-02T15:39:56;13.90;72.50
13328;DHT22;6733;51.044;3.746;2024-03-02T15:42:22;14.00;72.20
13328;DHT22;6733;51.044;3.746;2024-03-02T15:44:52;14.00;71.50
13328;DHT22;6733;51.044;3.746;2024-03-02T15:47:19;14.10;71.10
13328;DHT22;6733;51.044;3.746;2024-03-02T15:49:45;14.10;70.50
13328;DHT22;6733;51.044;3.746;2024-03-02T15:52:11;14.10;70.30
13328;DHT22;6733;51.044;3.746;2024-03-02T15:54:40;14.20;70.70
13328;DHT22;6733;51.044;3.746;2024-03-02T15:57:06;14.10;70.40
13328;DHT22;6733;51.044;3.746;2024-03-02T15:59:32;14.10;69.50
13328;DHT22;6733;51.044;3.746;2024-03-02T16:01:58;14.10;69.50
13328;DHT22;6733;51.044;3.746;2024-03-02T16:04:25;14.10;71.70
13328;DHT22;6733;51.044;3.746;2024-03-02T16:06:51;14.10;71.00
13328;DHT22;6733;51.044;3.746;2024-03-02T16:09:17;14.10;70.70